createdAt,value
2019-01-09T00:02:57.583Z,96549.67
2019-01-09T00:05:57.882Z,96534.75
2019-01-09T00:08:25.652Z,96518.23
2019-01-09T00:11:25.837Z,96518.52
2019-01-09T00:14:25.267Z,96531.06
2019-01-09T00:16:53.083Z,96534.10
2019-01-09T00:19:52.477Z,96527.48
2019-01-09T00:28:55.951Z,96531.05
2019-01-09T00:34:37.842Z,96532.15
2019-01-09T00:37:37.449Z,96537.05
2019-01-09T00:40:36.889Z,96524.87
2019-01-09T00:43:37.198Z,96525.42
2019-01-09T00:46:37.321Z,96518.39
2019-01-09T00:49:37.681Z,96529.39
2019-01-09T00:52:37.441Z,96516.28
2019-01-09T00:55:37.412Z,96530.90
2019-01-09T01:01:37.862Z,96525.09
2019-01-09T01:04:29.105Z,96529.35
2019-01-09T01:07:35.599Z,96519.57
2019-01-09T01:10:41.907Z,96519.28
2019-01-09T01:13:48.363Z,96508.45
2019-01-09T01:16:54.814Z,96511.09
2019-01-09T01:20:01.312Z,96517.95
2019-01-09T01:23:07.810Z,96518.87
2019-01-09T01:26:14.227Z,96507.39
2019-01-09T01:29:20.638Z,96512.19
2019-01-09T01:32:27.204Z,96523.59
2019-01-09T01:35:33.675Z,96522.00
2019-01-09T01:38:44.955Z,96521.92
2019-01-09T01:41:58.238Z,96517.73
2019-01-09T01:45:04.749Z,96516.12
2019-01-09T01:48:11.180Z,96512.05
2019-01-09T01:51:17.616Z,96522.16
2019-01-09T01:54:22.049Z,96513.19
2019-01-09T01:57:10.492Z,96513.88
2019-01-09T01:59:45.757Z,96510.84
2019-01-09T02:02:52.209Z,96519.61
2019-01-09T02:05:42.599Z,96520.79
2019-01-09T02:08:49.049Z,96513.23
2019-01-09T02:11:55.529Z,96515.39
2019-01-09T02:14:35.285Z,96514.41
2019-01-09T02:17:41.846Z,96506.80
2019-01-09T02:20:32.456Z,96499.50
2019-01-09T02:23:26.913Z,96500.50
2019-01-09T02:29:41.883Z,96496.88
2019-01-09T02:32:28.776Z,96489.94
2019-01-09T02:35:19.908Z,96498.81
2019-01-09T02:41:20.487Z,96493.25
2019-01-09T02:50:22.609Z,96495.20
2019-01-09T02:53:01.764Z,96500.39
2019-01-09T02:56:01.817Z,96501.91
2019-01-09T03:04:46.085Z,96481.02
2019-01-09T03:10:28.363Z,96478.88
2019-01-09T03:13:27.747Z,96478.75
2019-01-09T03:19:09.774Z,96466.58
2019-01-09T03:22:09.193Z,96469.30
2019-01-09T03:31:02.795Z,96463.42
2019-01-09T03:33:51.747Z,96455.05
2019-01-09T03:36:51.989Z,96459.80
2019-01-09T03:39:52.303Z,96460.92
2019-01-09T03:42:31.373Z,96446.39
2019-01-09T03:48:01.659Z,96446.27
2019-01-09T03:50:49.056Z,96445.32
2019-01-09T03:53:29.401Z,96441.59
2019-01-09T04:02:48.673Z,96437.38
2019-01-09T04:05:48.144Z,96426.73
2019-01-09T04:08:48.181Z,96422.11
2019-01-09T04:11:48.392Z,96421.17
2019-01-09T04:14:49.815Z,96417.09
2019-01-09T04:17:50.047Z,96408.40
2019-01-09T04:20:50.143Z,96418.39
2019-01-09T04:23:50.459Z,96415.17
2019-01-09T04:26:50.735Z,96419.07
2019-01-09T04:29:29.868Z,96404.00
2019-01-09T04:32:30.200Z,96405.58
2019-01-09T04:38:30.883Z,96401.67
2019-01-09T04:41:31.086Z,96396.37
2019-01-09T04:44:31.385Z,96399.12
2019-01-09T04:47:18.633Z,96404.55
2019-01-09T04:50:19.982Z,96410.23
2019-01-09T04:56:00.965Z,96413.64
2019-01-09T04:59:00.873Z,96415.44
2019-01-09T05:02:00.299Z,96404.88
2019-01-09T05:04:59.791Z,96410.36
2019-01-09T05:10:40.492Z,96405.68
2019-01-09T05:13:40.558Z,96401.56
2019-01-09T05:16:20.392Z,96387.28
2019-01-09T05:18:59.401Z,96394.89
2019-01-09T05:21:59.359Z,96398.39
2019-01-09T05:28:00.876Z,96394.22
2019-01-09T05:33:41.453Z,96411.28
2019-01-09T05:36:20.602Z,96401.97
2019-01-09T05:38:48.546Z,96396.77
2019-01-09T05:41:27.599Z,96400.53
2019-01-09T05:50:09.452Z,96403.48
2019-01-09T05:53:09.205Z,96405.08
2019-01-09T05:56:09.456Z,96396.39
2019-01-09T05:58:37.126Z,96396.70
2019-01-09T06:01:36.921Z,96397.71
2019-01-09T06:04:24.094Z,96406.31
2019-01-09T06:07:18.408Z,96399.29
2019-01-09T06:10:03.979Z,96402.61
2019-01-09T06:12:52.971Z,96392.62
2019-01-09T06:21:48.024Z,96394.91
2019-01-09T06:24:47.745Z,96386.01
2019-01-09T06:27:47.147Z,96386.23
2019-01-09T06:37:00.675Z,96376.61
2019-01-09T06:39:29.733Z,96375.85
2019-01-09T06:42:29.839Z,96385.65
2019-01-09T06:45:29.967Z,96380.94
2019-01-09T06:47:58.034Z,96367.14
2019-01-09T06:50:58.213Z,96380.94
2019-01-09T06:53:58.364Z,96382.11
2019-01-09T06:56:58.610Z,96384.28
2019-01-09T06:59:58.847Z,96384.02
2019-01-09T07:02:59.070Z,96377.17
2019-01-09T07:05:38.172Z,96383.37
2019-01-09T07:10:50.895Z,96393.20
2019-01-09T07:13:29.771Z,96387.92
2019-01-09T07:16:29.588Z,96396.20
2019-01-09T07:19:29.771Z,96391.50
2019-01-09T07:22:29.973Z,96381.83
2019-01-09T07:25:30.137Z,96384.90
2019-01-09T07:28:30.297Z,96392.11
2019-01-09T07:31:30.261Z,96385.09
2019-01-09T07:34:30.579Z,96380.20
2019-01-09T07:37:30.797Z,96383.08
2019-01-09T07:40:30.226Z,96384.56
2019-01-09T07:43:30.264Z,96379.45
2019-01-09T07:46:31.619Z,96376.89
2019-01-09T07:49:31.802Z,96375.42
2019-01-09T07:52:32.075Z,96373.13
2019-01-09T07:55:33.171Z,96372.19
2019-01-09T07:58:33.427Z,96383.13
2019-01-09T08:01:20.687Z,96380.02
2019-01-09T08:07:25.178Z,96383.08
2019-01-09T08:10:14.078Z,96383.95
2019-01-09T08:16:18.791Z,96387.63
2019-01-09T08:19:19.052Z,96391.52
2019-01-09T08:21:46.694Z,96388.51
2019-01-09T08:24:35.648Z,96388.91
2019-01-09T08:27:03.271Z,96393.09
2019-01-09T08:29:50.323Z,96389.65
2019-01-09T08:32:39.201Z,96388.53
2019-01-09T08:38:08.049Z,96401.14
2019-01-09T08:43:37.206Z,96405.30
2019-01-09T08:46:28.204Z,96402.95
2019-01-09T08:51:57.480Z,96407.89
2019-01-09T08:54:25.486Z,96395.28
2019-01-09T08:57:25.502Z,96401.06
2019-01-09T09:03:14.820Z,96413.41
2019-01-09T09:06:02.293Z,96406.59
2019-01-09T09:09:02.101Z,96402.55
2019-01-09T09:11:42.193Z,96409.89
2019-01-09T09:14:09.917Z,96414.71
2019-01-09T09:16:49.141Z,96425.38
2019-01-09T09:22:18.364Z,96423.91
2019-01-09T09:25:18.455Z,96432.17
2019-01-09T09:27:46.254Z,96428.13
2019-01-09T09:33:16.898Z,96440.31
2019-01-09T09:39:27.344Z,96429.46
2019-01-09T09:42:26.637Z,96421.52
2019-01-09T09:45:26.108Z,96430.11
2019-01-09T09:47:53.785Z,96429.94
2019-01-09T09:50:53.415Z,96410.73
2019-01-09T09:53:21.167Z,96423.02
2019-01-09T09:56:20.839Z,96420.66
2019-01-09T09:59:20.873Z,96424.91
2019-01-09T10:01:48.621Z,96414.67
2019-01-09T10:04:43.535Z,96417.66
2019-01-09T10:07:43.083Z,96416.56
2019-01-09T10:10:10.894Z,96414.04
2019-01-09T10:12:49.991Z,96419.44
2019-01-09T10:15:49.660Z,96412.22
2019-01-09T10:18:49.671Z,96408.95
2019-01-09T10:24:18.782Z,96397.53
2019-01-09T10:40:18.063Z,96389.88
2019-01-09T10:42:45.805Z,96391.95
2019-01-09T10:45:15.331Z,96378.78
2019-01-09T10:47:42.971Z,96380.85
2019-01-09T10:50:10.944Z,96378.46
2019-01-09T10:53:10.781Z,96382.22
2019-01-09T10:55:58.318Z,96374.95
2019-01-09T11:02:03.495Z,96368.67
2019-01-09T11:07:32.923Z,96358.00
2019-01-09T11:10:02.455Z,96371.32
2019-01-09T11:12:42.389Z,96367.86
2019-01-09T11:15:42.233Z,96364.36
2019-01-09T11:18:10.260Z,96358.72
2019-01-09T11:23:48.750Z,96363.57
2019-01-09T11:26:48.373Z,96366.58
2019-01-09T11:29:16.423Z,96359.75
2019-01-09T11:32:16.665Z,96359.44
2019-01-09T11:37:58.128Z,96347.78
2019-01-09T11:40:37.223Z,96352.60
2019-01-09T11:43:37.558Z,96347.09
2019-01-09T11:52:20.762Z,96350.25
2019-01-09T11:55:21.159Z,96342.30
2019-01-09T11:58:01.499Z,96345.41
2019-01-09T12:03:49.805Z,96338.06
2019-01-09T12:06:42.996Z,96335.94
2019-01-09T12:09:43.560Z,96334.37
2019-01-09T12:12:11.241Z,96329.92
2019-01-09T12:17:59.482Z,96329.94
2019-01-09T12:24:04.574Z,96333.00
2019-01-09T12:26:53.704Z,96333.07
2019-01-09T12:29:55.610Z,96324.97
2019-01-09T12:35:40.025Z,96321.28
2019-01-09T12:41:41.258Z,96326.08
2019-01-09T12:44:40.516Z,96330.50
2019-01-09T12:47:40.002Z,96330.48
2019-01-09T12:50:19.871Z,96330.83
2019-01-09T12:53:19.690Z,96327.16
2019-01-09T12:56:06.764Z,96334.92
2019-01-09T12:59:08.243Z,96332.78
2019-01-09T13:02:08.199Z,96342.53
2019-01-09T13:04:57.361Z,96343.25
2019-01-09T13:07:36.307Z,96351.63
2019-01-09T13:13:37.377Z,96349.74
2019-01-09T13:16:37.396Z,96353.73
2019-01-09T13:19:36.796Z,96359.33
2019-01-09T13:22:04.863Z,96358.27
2019-01-09T13:24:45.123Z,96362.48
2019-01-09T13:27:45.025Z,96370.50
2019-01-09T13:30:46.394Z,96373.50
2019-01-09T13:33:14.111Z,96369.34
2019-01-09T13:36:13.551Z,96375.84
2019-01-09T13:39:13.017Z,96377.02
2019-01-09T13:41:40.785Z,96380.06
2019-01-09T13:44:19.998Z,96387.87
2019-01-09T13:46:59.177Z,96375.19
2019-01-09T13:49:58.748Z,96378.20
2019-01-09T13:55:49.459Z,96381.37
2019-01-09T14:01:55.960Z,96374.72
2019-01-09T14:04:43.014Z,96386.36
2019-01-09T14:07:43.322Z,96386.91
2019-01-09T14:10:44.663Z,96398.09
2019-01-09T14:13:34.373Z,96394.71
2019-01-09T14:16:13.350Z,96399.59
2019-01-09T14:19:21.740Z,96397.89
2019-01-09T14:22:23.518Z,96398.56
2019-01-09T14:25:23.644Z,96397.80
2019-01-09T14:28:22.971Z,96406.53
2019-01-09T14:31:23.051Z,96406.24
2019-01-09T14:34:23.188Z,96410.09
2019-01-09T14:37:23.399Z,96416.48
2019-01-09T14:40:02.543Z,96411.40
2019-01-09T14:45:54.652Z,96422.56
2019-01-09T14:48:43.970Z,96418.95
2019-01-09T14:51:44.031Z,96416.78
2019-01-09T14:54:44.248Z,96434.69
2019-01-09T15:00:46.405Z,96432.70
2019-01-09T15:03:46.872Z,96435.77
2019-01-09T15:06:47.038Z,96434.16
2019-01-09T15:09:47.263Z,96438.34
2019-01-09T15:15:47.846Z,96444.27
2019-01-09T15:18:48.080Z,96436.52
2019-01-09T15:21:47.688Z,96454.11
2019-01-09T15:24:48.031Z,96452.83
2019-01-09T15:27:48.334Z,96457.34
2019-01-09T15:30:28.067Z,96459.00
2019-01-09T15:33:27.565Z,96456.72
2019-01-09T15:36:14.982Z,96462.91
2019-01-09T15:39:16.887Z,96455.26
2019-01-09T15:42:16.818Z,96458.95
2019-01-09T15:44:57.810Z,96460.73
2019-01-09T15:50:18.091Z,96470.63
2019-01-09T15:53:17.828Z,96473.24
2019-01-09T15:56:18.175Z,96467.78
2019-01-09T15:59:08.874Z,96482.02
2019-01-09T16:02:19.567Z,96470.47
2019-01-09T16:05:19.437Z,96481.03
2019-01-09T16:07:59.097Z,96478.39
2019-01-09T16:10:39.133Z,96487.75
2019-01-09T16:13:38.615Z,96481.42
2019-01-09T16:16:18.799Z,96488.13
2019-01-09T16:19:18.193Z,96481.56
2019-01-09T16:22:07.203Z,96479.34
2019-01-09T16:25:07.475Z,96488.30
2019-01-09T16:28:07.592Z,96481.18
2019-01-09T16:31:11.605Z,96496.11
2019-01-09T16:33:51.841Z,96500.09
2019-01-09T16:36:51.436Z,96499.66
2019-01-09T16:39:51.646Z,96502.93
2019-01-09T16:42:51.820Z,96505.80
2019-01-09T16:45:31.966Z,96507.91
2019-01-09T16:48:32.209Z,96507.63
2019-01-09T16:51:26.167Z,96511.70
2019-01-09T16:54:21.265Z,96514.69
2019-01-09T16:59:55.478Z,96520.86
2019-01-09T17:02:23.224Z,96522.84
2019-01-09T17:05:18.775Z,96527.84
2019-01-09T17:10:47.800Z,96535.89
2019-01-09T17:16:16.567Z,96543.16
2019-01-09T17:19:15.936Z,96544.91
2019-01-09T17:21:43.733Z,96545.25
2019-01-09T17:27:12.134Z,96532.91
2019-01-09T17:30:11.570Z,96545.63
2019-01-09T17:32:39.590Z,96542.63
2019-01-09T17:38:49.009Z,96541.84
2019-01-09T17:41:16.766Z,96543.09
2019-01-09T17:43:44.485Z,96545.83
2019-01-09T17:46:45.020Z,96549.38
2019-01-09T17:49:44.961Z,96556.18
2019-01-09T17:52:12.662Z,96537.63
2019-01-09T17:55:12.774Z,96549.12
2019-01-09T17:58:12.104Z,96559.89
2019-01-09T18:04:24.208Z,96556.58
2019-01-09T18:10:40.278Z,96560.12
2019-01-09T18:13:31.184Z,96565.67
2019-01-09T18:16:30.481Z,96572.85
2019-01-09T18:19:32.134Z,96572.09
2019-01-09T18:22:32.033Z,96569.14
2019-01-09T18:25:14.078Z,96572.91
2019-01-09T18:28:14.202Z,96577.27
2019-01-09T18:31:20.690Z,96577.77
2019-01-09T18:34:27.224Z,96579.98
2019-01-09T18:37:33.910Z,96577.13
2019-01-09T18:40:40.381Z,96585.73
2019-01-09T18:43:47.387Z,96588.89
2019-01-09T18:46:53.964Z,96591.72
2019-01-09T18:49:46.351Z,96590.56
2019-01-09T18:52:52.788Z,96592.02
2019-01-09T18:58:54.344Z,96596.17
2019-01-09T19:01:54.525Z,96605.30
2019-01-09T19:04:54.774Z,96605.21
2019-01-09T19:07:54.904Z,96609.52
2019-01-09T19:10:57.904Z,96615.04
2019-01-09T19:13:57.387Z,96619.59
2019-01-09T19:16:25.199Z,96616.48
2019-01-09T19:22:24.604Z,96621.08
2019-01-09T19:25:12.317Z,96621.75
2019-01-09T19:33:54.850Z,96634.12
2019-01-09T19:36:55.564Z,96631.86
2019-01-09T19:39:56.991Z,96633.16
2019-01-09T19:42:57.312Z,96635.88
2019-01-09T19:45:36.539Z,96641.63
2019-01-09T19:48:04.502Z,96644.23
2019-01-09T19:51:04.745Z,96640.64
2019-01-09T19:53:44.469Z,96645.90
2019-01-09T19:56:25.560Z,96646.44
2019-01-09T20:02:13.661Z,96648.02
2019-01-09T20:07:43.030Z,96659.22
2019-01-09T20:10:44.176Z,96669.14
2019-01-09T20:13:44.352Z,96660.52
2019-01-09T20:16:23.425Z,96647.95
2019-01-09T20:19:23.095Z,96667.77
2019-01-09T20:21:50.869Z,96671.19
2019-01-09T20:24:51.145Z,96670.11
2019-01-09T20:27:19.058Z,96663.42
2019-01-09T20:30:20.490Z,96671.96
2019-01-09T20:33:20.600Z,96672.81
2019-01-09T20:35:48.358Z,96677.66
2019-01-09T20:38:48.502Z,96677.12
2019-01-09T20:41:35.139Z,96672.14
2019-01-09T20:44:29.054Z,96678.97
2019-01-09T20:47:08.221Z,96688.00
2019-01-09T20:50:07.609Z,96684.89
2019-01-09T20:55:37.013Z,96690.68
2019-01-09T20:58:36.838Z,96691.23
2019-01-09T21:01:04.947Z,96692.08
2019-01-09T21:04:04.299Z,96688.35
2019-01-09T21:06:32.173Z,96691.86
2019-01-09T21:09:12.016Z,96687.67
2019-01-09T21:12:11.490Z,96688.44
2019-01-09T21:14:51.319Z,96696.16
2019-01-09T21:20:27.757Z,96700.17
2019-01-09T21:26:07.771Z,96706.19
2019-01-09T21:34:50.003Z,96714.86
2019-01-09T21:37:17.764Z,96710.50
2019-01-09T21:40:17.951Z,96714.31
2019-01-09T21:43:17.274Z,96727.03
2019-01-09T21:45:46.798Z,96730.89
2019-01-09T21:48:36.008Z,96725.55
2019-01-09T21:51:16.456Z,96737.13
2019-01-09T21:54:16.054Z,96729.69
2019-01-09T21:59:52.345Z,96736.28
2019-01-09T22:02:31.256Z,96735.08
2019-01-09T22:11:02.236Z,96734.22
2019-01-09T22:16:31.037Z,96741.03
2019-01-09T22:19:18.290Z,96743.59
2019-01-09T22:21:59.060Z,96750.00
2019-01-09T22:25:07.474Z,96749.47
2019-01-09T22:27:35.135Z,96746.91
2019-01-09T22:30:43.570Z,96751.67
2019-01-09T22:36:13.922Z,96757.97
2019-01-09T22:39:13.774Z,96748.96
2019-01-09T22:41:41.559Z,96759.16
2019-01-09T22:44:40.978Z,96753.18
2019-01-09T22:47:08.742Z,96756.02
2019-01-09T22:50:00.399Z,96754.13
2019-01-09T22:52:41.349Z,96755.77
2019-01-09T22:55:10.835Z,96756.48
2019-01-09T23:01:02.477Z,96760.78
2019-01-09T23:04:03.276Z,96764.48
2019-01-09T23:07:02.649Z,96757.68
2019-01-09T23:09:30.515Z,96757.32
2019-01-09T23:12:30.589Z,96755.82
2019-01-09T23:17:49.831Z,96761.03
2019-01-09T23:20:38.890Z,96759.48
2019-01-09T23:23:38.232Z,96758.70
2019-01-09T23:26:17.231Z,96765.09
2019-01-09T23:29:17.569Z,96765.58
2019-01-09T23:31:45.315Z,96760.78
2019-01-09T23:34:25.181Z,96761.27
2019-01-09T23:37:24.696Z,96768.19
2019-01-09T23:40:24.959Z,96764.89
2019-01-09T23:43:25.243Z,96766.52
2019-01-09T23:46:25.550Z,96767.61
2019-01-09T23:49:25.872Z,96769.77
2019-01-09T23:52:26.104Z,96770.25
2019-01-09T23:55:26.096Z,96773.01
2019-01-09T23:57:53.810Z,96775.77
